createdAt,value
2018-12-30T00:01:08.604Z,69.38
2018-12-30T00:03:36.114Z,69.54
2018-12-30T00:06:03.446Z,69.61
2018-12-30T00:08:30.879Z,69.53
2018-12-30T00:10:58.354Z,69.12
2018-12-30T00:13:25.792Z,68.99
2018-12-30T00:15:53.194Z,69.07
2018-12-30T00:18:20.600Z,68.77
2018-12-30T00:20:48.272Z,68.83
2018-12-30T00:23:15.760Z,69.20
2018-12-30T00:25:43.610Z,69.21
2018-12-30T00:28:11.182Z,69.15
2018-12-30T00:30:38.791Z,68.76
2018-12-30T00:33:06.365Z,68.80
2018-12-30T00:35:34.253Z,68.69
2018-12-30T00:38:01.688Z,68.76
2018-12-30T00:40:29.227Z,68.74
2018-12-30T00:42:57.009Z,68.48
2018-12-30T00:45:25.300Z,68.88
2018-12-30T00:47:53.199Z,68.91
2018-12-30T00:50:21.497Z,69.01
2018-12-30T00:52:49.867Z,69.04
2018-12-30T00:55:17.456Z,68.83
2018-12-30T00:57:45.095Z,68.83
2018-12-30T01:00:13.134Z,69.03
2018-12-30T01:02:40.830Z,69.07
2018-12-30T01:05:09.133Z,69.17
2018-12-30T01:07:36.916Z,69.05
2018-12-30T01:10:04.502Z,69.05
2018-12-30T01:12:33.483Z,69.33
2018-12-30T01:15:01.022Z,69.72
2018-12-30T01:17:28.672Z,69.77
2018-12-30T01:19:56.300Z,69.65
2018-12-30T01:22:23.905Z,69.54
2018-12-30T01:24:55.506Z,69.65
2018-12-30T01:27:23.035Z,70.10
2018-12-30T01:29:50.840Z,70.38
2018-12-30T01:32:19.458Z,70.16
2018-12-30T01:34:47.261Z,69.91
2018-12-30T01:37:14.903Z,70.06
2018-12-30T01:39:42.460Z,69.88
2018-12-30T01:42:11.001Z,70.02
2018-12-30T01:44:39.494Z,69.71
2018-12-30T01:47:08.745Z,69.43
2018-12-30T01:49:38.058Z,69.21
2018-12-30T01:52:07.093Z,69.31
2018-12-30T01:54:35.358Z,69.31
2018-12-30T01:57:02.980Z,69.60
2018-12-30T01:59:31.648Z,70.00
2018-12-30T02:01:59.236Z,69.77
2018-12-30T02:04:27.151Z,69.46
2018-12-30T02:06:55.186Z,69.73
2018-12-30T02:09:22.934Z,69.87
2018-12-30T02:11:51.163Z,69.92
2018-12-30T02:17:02.561Z,70.37
2018-12-30T02:19:30.207Z,70.29
2018-12-30T02:21:58.399Z,70.44
2018-12-30T02:24:27.651Z,70.45
2018-12-30T02:26:55.871Z,70.15
2018-12-30T02:29:23.474Z,70.08
2018-12-30T02:31:52.145Z,70.21
2018-12-30T02:34:19.679Z,69.82
2018-12-30T02:36:47.368Z,69.89
2018-12-30T02:39:15.956Z,70.01
2018-12-30T02:41:43.933Z,70.05
2018-12-30T02:44:11.554Z,69.84
2018-12-30T02:46:39.170Z,69.59
2018-12-30T02:49:06.713Z,69.41
2018-12-30T02:51:34.646Z,69.22
2018-12-30T02:54:02.231Z,69.14
2018-12-30T02:56:29.857Z,69.30
2018-12-30T02:58:57.389Z,69.27
2018-12-30T03:01:24.922Z,69.40
2018-12-30T03:03:52.884Z,69.26
2018-12-30T03:06:22.285Z,69.34
2018-12-30T03:08:53.453Z,69.86
2018-12-30T03:11:21.064Z,69.94
2018-12-30T03:13:48.728Z,69.92
2018-12-30T03:16:16.303Z,69.81
2018-12-30T03:18:44.064Z,70.10
2018-12-30T03:21:11.846Z,70.14
2018-12-30T03:23:39.408Z,70.15
2018-12-30T03:26:07.012Z,69.94
2018-12-30T03:28:34.601Z,69.72
2018-12-30T03:31:03.010Z,69.94
2018-12-30T03:33:31.441Z,70.14
2018-12-30T03:35:59.229Z,69.87
2018-12-30T03:38:27.561Z,69.86
2018-12-30T03:40:55.857Z,69.91
2018-12-30T03:43:23.341Z,69.94
2018-12-30T03:45:55.097Z,69.57
2018-12-30T03:48:22.773Z,69.83
2018-12-30T03:50:50.353Z,69.83
2018-12-30T03:53:17.912Z,69.64
2018-12-30T03:55:45.436Z,69.38
2018-12-30T03:58:13.098Z,69.26
2018-12-30T04:00:40.612Z,69.62
2018-12-30T04:03:08.087Z,69.82
2018-12-30T04:05:35.886Z,69.72
2018-12-30T04:08:03.473Z,69.55
2018-12-30T04:10:30.939Z,69.37
2018-12-30T04:12:58.435Z,69.72
2018-12-30T04:15:26.484Z,69.75
2018-12-30T04:17:54.066Z,69.73
2018-12-30T04:20:21.631Z,69.55
2018-12-30T04:22:49.113Z,69.35
2018-12-30T04:25:17.790Z,69.33
2018-12-30T04:27:45.544Z,69.16
2018-12-30T04:30:13.143Z,69.33
2018-12-30T04:32:42.751Z,69.50
2018-12-30T04:35:10.268Z,69.35
2018-12-30T04:37:37.783Z,69.26
2018-12-30T04:40:05.734Z,69.17
2018-12-30T04:42:33.950Z,69.03
2018-12-30T04:45:01.746Z,68.84
2018-12-30T04:47:29.341Z,68.98
2018-12-30T04:49:57.034Z,69.25
2018-12-30T04:52:25.741Z,69.45
2018-12-30T04:54:52.114Z,69.60
2018-12-30T04:57:19.757Z,69.81
2018-12-30T04:59:47.422Z,69.97
2018-12-30T05:02:14.905Z,69.96
2018-12-30T05:04:42.336Z,69.90
2018-12-30T05:07:10.899Z,69.79
2018-12-30T05:09:38.951Z,70.17
2018-12-30T05:12:06.424Z,70.25
2018-12-30T05:14:34.088Z,70.09
2018-12-30T05:17:01.752Z,69.99
2018-12-30T05:19:29.257Z,69.95
2018-12-30T05:21:56.739Z,69.79
2018-12-30T05:24:24.271Z,69.81
2018-12-30T05:26:51.794Z,70.01
2018-12-30T05:29:19.247Z,70.20
2018-12-30T05:31:46.731Z,69.86
2018-12-30T05:34:14.223Z,70.03
2018-12-30T05:36:48.915Z,69.87
2018-12-30T05:39:16.446Z,70.09
2018-12-30T05:41:43.908Z,70.33
2018-12-30T05:44:11.478Z,70.38
2018-12-30T05:46:38.949Z,70.27
2018-12-30T05:49:06.405Z,70.20
2018-12-30T05:51:33.964Z,70.05
2018-12-30T05:54:01.431Z,69.92
2018-12-30T05:56:30.003Z,69.66
2018-12-30T05:58:57.530Z,69.84
2018-12-30T06:01:25.230Z,70.21
2018-12-30T06:03:52.877Z,70.31
2018-12-30T06:06:20.556Z,70.33
2018-12-30T06:08:48.066Z,70.29
2018-12-30T06:11:16.168Z,70.58
2018-12-30T06:13:47.037Z,70.75
2018-12-30T06:16:14.912Z,70.81
2018-12-30T06:18:42.629Z,71.17
2018-12-30T06:21:10.338Z,70.91
2018-12-30T06:23:39.226Z,70.82
2018-12-30T06:26:06.736Z,71.00
2018-12-30T06:28:35.075Z,70.78
2018-12-30T06:31:02.840Z,70.56
2018-12-30T06:33:32.955Z,70.40
2018-12-30T06:36:00.508Z,70.30
2018-12-30T06:38:28.027Z,70.31
2018-12-30T06:40:55.882Z,70.40
2018-12-30T06:43:23.415Z,70.27
2018-12-30T06:45:51.356Z,70.24
2018-12-30T06:48:18.858Z,70.05
2018-12-30T06:50:53.032Z,70.23
2018-12-30T06:53:20.643Z,70.32
2018-12-30T06:55:51.394Z,70.30
2018-12-30T06:58:20.761Z,70.48
2018-12-30T07:00:50.866Z,70.36
2018-12-30T07:03:19.492Z,70.58
2018-12-30T07:05:50.725Z,70.96
2018-12-30T07:08:18.264Z,71.20
2018-12-30T07:10:45.798Z,71.44
2018-12-30T07:13:14.991Z,71.84
2018-12-30T07:15:45.663Z,72.02
2018-12-30T07:18:13.497Z,72.06
2018-12-30T07:20:41.221Z,72.45
2018-12-30T07:23:08.873Z,72.45
2018-12-30T07:25:37.097Z,72.15
2018-12-30T07:28:05.171Z,72.02
2018-12-30T07:30:32.717Z,71.57
2018-12-30T07:33:00.332Z,71.57
2018-12-30T07:35:28.346Z,71.51
2018-12-30T07:37:55.947Z,71.49
2018-12-30T07:40:23.429Z,71.38
2018-12-30T07:42:50.986Z,71.59
2018-12-30T07:45:18.539Z,71.62
2018-12-30T07:47:46.118Z,71.61
2018-12-30T07:50:13.635Z,71.50
2018-12-30T07:52:41.299Z,71.19
2018-12-30T07:55:08.958Z,71.03
2018-12-30T07:57:36.557Z,71.20
2018-12-30T08:00:05.821Z,71.18
2018-12-30T08:02:33.535Z,70.99
2018-12-30T08:05:01.025Z,70.94
2018-12-30T08:07:28.441Z,70.90
2018-12-30T08:09:56.144Z,70.83
2018-12-30T08:12:23.803Z,70.80
2018-12-30T08:14:53.651Z,70.58
2018-12-30T08:17:21.126Z,70.58
2018-12-30T08:19:48.733Z,70.55
2018-12-30T08:22:18.044Z,70.34
2018-12-30T08:24:45.641Z,70.32
2018-12-30T08:27:13.203Z,70.42
2018-12-30T08:29:40.718Z,70.50
2018-12-30T08:32:08.284Z,70.30
2018-12-30T08:34:35.752Z,70.56
2018-12-30T08:37:03.197Z,70.78
2018-12-30T08:39:30.812Z,70.77
2018-12-30T08:41:58.826Z,70.62
2018-12-30T08:44:26.265Z,70.13
2018-12-30T08:46:53.767Z,70.06
2018-12-30T08:49:21.283Z,70.38
2018-12-30T08:51:49.362Z,70.52
2018-12-30T08:54:17.021Z,70.64
2018-12-30T08:56:45.438Z,70.85
2018-12-30T08:59:13.061Z,71.14
2018-12-30T09:01:40.618Z,71.14
2018-12-30T09:04:08.142Z,71.17
2018-12-30T09:06:35.712Z,71.06
2018-12-30T09:09:03.911Z,70.57
2018-12-30T09:11:31.401Z,70.35
2018-12-30T09:13:59.024Z,70.24
2018-12-30T09:16:26.587Z,70.26
2018-12-30T09:18:54.079Z,70.28
2018-12-30T09:21:21.715Z,70.34
2018-12-30T09:23:54.838Z,70.21
2018-12-30T09:26:23.348Z,69.66
2018-12-30T09:28:50.897Z,68.99
2018-12-30T09:31:18.431Z,68.91
2018-12-30T09:33:45.944Z,68.56
2018-12-30T09:36:13.491Z,68.20
2018-12-30T09:38:44.878Z,67.96
2018-12-30T09:41:12.581Z,67.91
2018-12-30T09:43:40.243Z,68.04
2018-12-30T09:46:08.701Z,68.08
2018-12-30T09:48:43.838Z,68.00
2018-12-30T09:51:12.595Z,68.06
2018-12-30T09:53:45.094Z,68.04
2018-12-30T09:56:12.104Z,67.55
2018-12-30T09:58:39.854Z,67.26
2018-12-30T10:01:07.958Z,67.00
2018-12-30T10:03:36.741Z,67.16
2018-12-30T10:06:04.478Z,66.95
2018-12-30T10:08:33.612Z,66.78
2018-12-30T10:11:01.185Z,67.17
2018-12-30T10:13:28.721Z,67.29
2018-12-30T10:15:56.286Z,67.22
2018-12-30T10:18:24.684Z,66.67
2018-12-30T10:20:52.281Z,66.41
2018-12-30T10:23:21.062Z,65.58
2018-12-30T10:25:48.782Z,64.69
2018-12-30T10:28:16.393Z,63.70
2018-12-30T10:30:45.506Z,62.11
2018-12-30T10:33:12.957Z,61.54
2018-12-30T10:35:40.735Z,60.93
2018-12-30T10:38:08.540Z,61.44
2018-12-30T10:40:36.088Z,63.36
2018-12-30T10:43:03.589Z,64.80
2018-12-30T10:45:31.090Z,65.67
2018-12-30T10:47:58.648Z,66.28
2018-12-30T10:50:26.123Z,66.44
2018-12-30T10:52:53.631Z,66.05
2018-12-30T10:55:21.236Z,65.22
2018-12-30T10:57:48.899Z,65.25
2018-12-30T11:00:17.167Z,64.96
2018-12-30T11:02:44.895Z,65.25
2018-12-30T11:05:12.491Z,65.31
2018-12-30T11:07:41.835Z,65.10
2018-12-30T11:10:09.458Z,64.78
2018-12-30T11:12:37.487Z,63.56
2018-12-30T11:15:05.019Z,63.54
2018-12-30T11:17:32.599Z,62.10
2018-12-30T11:20:00.247Z,59.62
2018-12-30T11:22:28.575Z,58.33
2018-12-30T11:24:55.690Z,56.09
2018-12-30T11:27:23.051Z,53.30
2018-12-30T11:29:50.326Z,52.67
2018-12-30T11:32:17.618Z,50.89
2018-12-30T11:34:45.429Z,49.57
2018-12-30T11:37:12.529Z,47.58
2018-12-30T11:39:39.583Z,47.08
2018-12-30T11:42:06.694Z,46.27
2018-12-30T11:44:33.780Z,46.38
2018-12-30T11:47:02.132Z,48.47
2018-12-30T11:49:29.260Z,51.12
2018-12-30T11:51:56.458Z,53.81
2018-12-30T11:54:23.463Z,54.81
2018-12-30T11:56:50.613Z,52.30
2018-12-30T11:59:17.635Z,49.30
2018-12-30T12:01:44.687Z,46.58
2018-12-30T12:04:11.772Z,44.70
2018-12-30T12:06:39.014Z,42.53
2018-12-30T12:09:06.846Z,42.31
2018-12-30T12:11:34.588Z,41.33
2018-12-30T12:14:01.799Z,40.47
2018-12-30T12:16:28.874Z,41.76
2018-12-30T12:18:56.102Z,42.10
2018-12-30T12:21:23.331Z,43.03
2018-12-30T12:23:50.459Z,45.59
2018-12-30T12:26:17.558Z,49.08
2018-12-30T12:28:44.585Z,49.77
2018-12-30T12:31:11.707Z,47.28
2018-12-30T12:33:38.661Z,44.72
2018-12-30T12:36:05.779Z,45.00
2018-12-30T12:38:37.171Z,47.72
2018-12-30T12:41:05.671Z,49.47
2018-12-30T12:43:32.727Z,48.45
2018-12-30T12:45:59.929Z,47.26
2018-12-30T12:48:27.345Z,46.97
2018-12-30T12:50:54.735Z,47.53
2018-12-30T12:53:51.984Z,49.38
2018-12-30T12:56:20.419Z,50.68
2018-12-30T12:58:47.569Z,52.04
2018-12-30T13:01:15.239Z,50.98
2018-12-30T13:20:28.383Z,40.16
2018-12-30T13:22:56.348Z,38.48
2018-12-30T13:25:23.898Z,37.49
2018-12-30T13:27:51.008Z,37.05
2018-12-30T13:30:18.018Z,37.57
2018-12-30T13:32:45.065Z,37.75
2018-12-30T13:35:12.792Z,40.68
2018-12-30T13:37:40.313Z,46.17
2018-12-30T13:40:07.832Z,50.77
2018-12-30T13:42:35.689Z,53.84
2018-12-30T13:45:03.967Z,55.51
2018-12-30T13:47:31.673Z,56.56
2018-12-30T13:49:59.294Z,57.38
2018-12-30T13:52:26.849Z,58.28
2018-12-30T13:54:54.291Z,58.82
2018-12-30T13:57:22.013Z,58.82
2018-12-30T13:59:50.478Z,58.77
2018-12-30T14:02:17.944Z,59.19
2018-12-30T14:04:45.488Z,59.45
2018-12-30T14:07:13.426Z,59.62
2018-12-30T14:09:41.704Z,59.95
2018-12-30T14:12:09.233Z,59.90
2018-12-30T14:14:36.858Z,59.89
2018-12-30T14:17:04.625Z,60.23
2018-12-30T14:19:32.472Z,60.01
2018-12-30T14:21:59.921Z,60.13
2018-12-30T14:24:27.488Z,59.92
2018-12-30T14:26:59.728Z,60.20
2018-12-30T14:29:22.719Z,60.50
2018-12-30T14:31:50.263Z,60.64
2018-12-30T14:34:17.788Z,60.77
2018-12-30T14:36:45.582Z,60.98
2018-12-30T14:39:13.146Z,61.65
2018-12-30T14:41:40.629Z,61.55
2018-12-30T14:44:08.683Z,61.57
2018-12-30T14:46:36.224Z,61.71
2018-12-30T14:49:05.180Z,61.84
2018-12-30T14:51:32.793Z,61.94
2018-12-30T14:54:00.286Z,61.96
2018-12-30T14:56:27.778Z,62.05
2018-12-30T14:58:55.205Z,62.18
2018-12-30T15:01:22.668Z,62.25
2018-12-30T15:03:50.138Z,62.19
2018-12-30T15:06:18.726Z,62.29
2018-12-30T15:08:46.267Z,62.47
2018-12-30T15:11:13.892Z,62.45
2018-12-30T15:13:42.720Z,62.31
2018-12-30T15:16:10.258Z,62.35
2018-12-30T15:18:37.821Z,62.49
2018-12-30T15:21:05.344Z,62.87
2018-12-30T15:23:32.874Z,63.25
2018-12-30T15:26:00.495Z,63.60
2018-12-30T15:28:28.122Z,63.67
2018-12-30T15:30:55.633Z,63.62
2018-12-30T15:33:24.615Z,63.98
2018-12-30T15:35:52.172Z,64.40
2018-12-30T15:38:20.877Z,64.83
2018-12-30T15:40:48.465Z,64.86
2018-12-30T15:43:17.511Z,64.92
2018-12-30T15:45:48.828Z,65.22
2018-12-30T15:48:17.671Z,65.80
2018-12-30T15:50:45.312Z,66.34
2018-12-30T15:53:12.836Z,66.87
2018-12-30T15:55:42.696Z,67.38
2018-12-30T15:58:10.405Z,67.89
2018-12-30T16:00:38.159Z,68.41
2018-12-30T16:03:05.749Z,68.66
2018-12-30T16:05:33.416Z,68.96
2018-12-30T16:08:01.052Z,68.79
2018-12-30T16:10:28.634Z,68.75
2018-12-30T16:12:57.595Z,68.80
2018-12-30T16:15:25.072Z,68.61
2018-12-30T16:17:52.601Z,68.80
2018-12-30T16:20:20.234Z,68.97
2018-12-30T16:22:47.866Z,69.21
2018-12-30T16:25:15.359Z,69.56
2018-12-30T16:27:43.935Z,69.84
2018-12-30T16:30:11.518Z,70.40
2018-12-30T16:32:39.124Z,70.92
2018-12-30T16:35:06.685Z,71.37
2018-12-30T16:37:34.267Z,71.68
2018-12-30T16:40:02.519Z,71.88
2018-12-30T16:42:30.305Z,72.03
2018-12-30T16:44:57.856Z,72.15
2018-12-30T16:47:25.353Z,72.25
2018-12-30T16:49:52.841Z,72.55
2018-12-30T16:52:20.289Z,72.47
2018-12-30T16:54:47.772Z,72.46
2018-12-30T16:57:15.302Z,72.44
2018-12-30T16:59:42.829Z,72.32
2018-12-30T17:02:10.258Z,72.28
2018-12-30T17:04:37.657Z,72.37
2018-12-30T17:07:05.106Z,72.22
2018-12-30T17:09:33.212Z,72.04
2018-12-30T17:12:00.774Z,72.03
2018-12-30T17:14:28.193Z,72.08
2018-12-30T17:16:55.625Z,71.83
2018-12-30T17:19:23.027Z,71.71
2018-12-30T17:21:50.506Z,71.66
2018-12-30T17:24:18.165Z,71.71
2018-12-30T17:26:45.907Z,71.89
2018-12-30T17:29:13.440Z,71.68
2018-12-30T17:31:40.907Z,71.69
2018-12-30T17:34:08.380Z,71.59
2018-12-30T17:36:35.935Z,71.68
2018-12-30T17:39:03.485Z,71.78
2018-12-30T17:41:30.948Z,71.70
2018-12-30T17:43:58.615Z,71.74
2018-12-30T17:46:26.095Z,72.10
2018-12-30T17:48:53.581Z,71.67
2018-12-30T17:51:21.080Z,71.71
2018-12-30T17:53:49.174Z,71.81
2018-12-30T17:56:17.277Z,71.41
2018-12-30T17:58:44.938Z,71.58
2018-12-30T18:01:12.463Z,71.59
2018-12-30T18:03:40.817Z,71.82
2018-12-30T18:06:08.246Z,71.86
2018-12-30T18:08:35.691Z,71.94
2018-12-30T18:11:03.217Z,71.79
2018-12-30T18:13:30.789Z,71.81
2018-12-30T18:15:58.593Z,71.78
2018-12-30T18:18:26.243Z,71.74
2018-12-30T18:20:53.747Z,72.00
2018-12-30T18:23:21.232Z,72.14
2018-12-30T18:25:48.756Z,72.09
2018-12-30T18:28:16.238Z,71.89
2018-12-30T18:30:43.635Z,71.97
2018-12-30T18:33:11.041Z,71.99
2018-12-30T18:35:38.447Z,72.21
2018-12-30T18:38:05.950Z,72.32
2018-12-30T18:40:33.511Z,72.35
2018-12-30T18:43:00.979Z,72.75
2018-12-30T18:45:28.371Z,72.81
2018-12-30T18:47:55.780Z,72.98
2018-12-30T18:50:23.350Z,73.21
2018-12-30T18:52:51.366Z,73.07
2018-12-30T18:55:18.763Z,73.01
2018-12-30T18:57:46.260Z,72.94
2018-12-30T19:00:13.816Z,72.81
2018-12-30T19:02:41.375Z,72.90
2018-12-30T19:05:08.944Z,72.95
2018-12-30T19:07:36.450Z,72.65
2018-12-30T19:10:03.944Z,72.77
2018-12-30T19:12:31.634Z,73.00
2018-12-30T19:14:59.198Z,73.52
2018-12-30T19:17:26.749Z,73.68
2018-12-30T19:19:54.398Z,73.74
2018-12-30T19:22:22.007Z,73.74
2018-12-30T19:24:49.631Z,73.93
2018-12-30T19:27:17.171Z,74.20
2018-12-30T19:29:45.051Z,74.23
2018-12-30T19:32:12.755Z,74.13
2018-12-30T19:34:40.288Z,73.98
2018-12-30T19:37:07.847Z,74.04
2018-12-30T19:39:35.357Z,74.16
2018-12-30T19:42:03.602Z,74.16
2018-12-30T19:44:31.262Z,74.40
2018-12-30T19:46:59.017Z,74.41
2018-12-30T19:49:26.547Z,74.57
2018-12-30T19:51:54.039Z,74.75
2018-12-30T19:54:21.523Z,74.95
2018-12-30T19:56:49.140Z,75.13
2018-12-30T19:59:16.550Z,75.25
2018-12-30T20:01:43.947Z,75.37
2018-12-30T20:04:11.381Z,75.61
2018-12-30T20:06:38.776Z,75.89
2018-12-30T20:09:06.299Z,76.14
2018-12-30T20:11:33.743Z,76.32
2018-12-30T20:14:01.171Z,76.31
2018-12-30T20:16:28.563Z,76.28
2018-12-30T20:18:55.983Z,76.07
2018-12-30T20:21:23.380Z,76.01
2018-12-30T20:23:51.163Z,76.22
2018-12-30T20:26:18.142Z,76.21
2018-12-30T20:28:45.552Z,76.39
2018-12-30T20:31:12.959Z,76.46
2018-12-30T20:33:40.400Z,76.46
2018-12-30T20:36:08.705Z,76.67
2018-12-30T20:38:35.681Z,76.69
2018-12-30T20:41:02.626Z,76.48
2018-12-30T20:43:29.589Z,76.39
2018-12-30T20:45:56.611Z,76.44
2018-12-30T20:48:25.329Z,76.30
2018-12-30T20:50:50.667Z,76.26
2018-12-30T20:53:17.608Z,76.23
2018-12-30T20:55:44.590Z,76.35
2018-12-30T20:58:11.576Z,76.30
2018-12-30T21:00:38.586Z,76.37
2018-12-30T21:03:05.544Z,76.54
2018-12-30T21:05:32.483Z,76.64
2018-12-30T21:07:59.445Z,76.72
2018-12-30T21:10:26.459Z,76.80
2018-12-30T21:12:53.400Z,76.56
2018-12-30T21:15:20.352Z,76.75
2018-12-30T21:17:47.330Z,76.86
2018-12-30T21:20:14.356Z,76.83
2018-12-30T21:22:41.359Z,76.90
2018-12-30T21:25:08.441Z,76.76
2018-12-30T21:27:35.566Z,77.03
2018-12-30T21:30:02.546Z,77.13
2018-12-30T21:32:29.548Z,77.05
2018-12-30T21:34:56.523Z,76.90
2018-12-30T21:37:23.512Z,76.91
2018-12-30T21:39:50.473Z,77.08
2018-12-30T21:42:17.452Z,77.07
2018-12-30T21:44:44.529Z,77.12
2018-12-30T21:47:11.480Z,77.42
2018-12-30T21:49:38.470Z,77.46
2018-12-30T21:52:05.494Z,77.24
2018-12-30T21:54:32.930Z,77.21
2018-12-30T21:57:00.406Z,77.49
2018-12-30T21:59:27.908Z,77.55
2018-12-30T22:01:55.933Z,77.65
2018-12-30T22:04:23.414Z,77.67
2018-12-30T22:06:50.923Z,77.56
2018-12-30T22:09:18.376Z,77.63
2018-12-30T22:11:45.856Z,77.72
2018-12-30T22:14:13.301Z,77.82
2018-12-30T22:16:40.796Z,77.88
2018-12-30T22:19:08.239Z,77.86
2018-12-30T22:21:35.686Z,77.76
2018-12-30T22:24:03.100Z,77.64
2018-12-30T22:26:30.535Z,77.66
2018-12-30T22:28:57.952Z,77.69
2018-12-30T22:31:25.362Z,77.59
2018-12-30T22:33:52.763Z,77.49
2018-12-30T22:36:20.164Z,77.49
2018-12-30T22:38:47.575Z,77.80
2018-12-30T22:41:14.967Z,77.98
2018-12-30T22:43:42.403Z,78.17
2018-12-30T22:46:09.799Z,78.27
2018-12-30T22:48:37.200Z,78.16
2018-12-30T22:51:04.615Z,78.27
2018-12-30T22:53:32.025Z,78.34
2018-12-30T22:55:59.458Z,78.26
2018-12-30T22:58:26.888Z,78.24
2018-12-30T23:01:02.826Z,78.59
2018-12-30T23:03:29.818Z,78.36
2018-12-30T23:05:57.305Z,78.43
2018-12-30T23:08:24.251Z,78.52
2018-12-30T23:10:53.136Z,78.41
2018-12-30T23:15:53.540Z,78.60
2018-12-30T23:18:20.504Z,78.73
2018-12-30T23:20:47.484Z,78.73
2018-12-30T23:23:14.430Z,78.62
2018-12-30T23:25:41.391Z,78.44
2018-12-30T23:28:08.362Z,78.26
2018-12-30T23:30:35.315Z,78.42
2018-12-30T23:33:02.304Z,78.49
2018-12-30T23:35:29.424Z,78.35
2018-12-30T23:37:56.446Z,78.40
2018-12-30T23:40:23.445Z,78.38
2018-12-30T23:42:50.491Z,78.23
2018-12-30T23:45:17.470Z,78.35
2018-12-30T23:47:44.468Z,78.52
2018-12-30T23:50:11.440Z,78.72
2018-12-30T23:52:38.438Z,78.69
2018-12-30T23:55:05.454Z,78.65
2018-12-30T23:57:33.235Z,78.61
